sensor_id;sensor_type;location;lat;lon;timestamp;pressure;altitude;pressure_sealevel;temperature;humidity
13387;BME280;6763;48.524;9.044;2023-04-28T00:00:49;97596.38;;;16.61;45.75
13387;BME280;6763;48.524;9.044;2023-04-28T00:03:15;97592.09;;;16.60;45.98
13387;BME280;6763;48.524;9.044;2023-04-28T00:05:40;97595.75;;;16.56;45.74
13387;BME280;6763;48.524;9.044;2023-04-28T00:08:06;97601.88;;;16.55;46.10
13387;BME280;6763;48.524;9.044;2023-04-28T00:10:31;97601.16;;;16.51;46.28
13387;BME280;6763;48.524;9.044;2023-04-28T00:12:57;97596.91;;;16.49;45.95
13387;BME280;6763;48.524;9.044;2023-04-28T00:15:22;97590.97;;;16.45;46.46
13387;BME280;6763;48.524;9.044;2023-04-28T00:17:48;97594.66;;;16.41;46.59
13387;BME280;6763;48.524;9.044;2023-04-28T00:20:13;97594.69;;;16.40;46.51
13387;BME280;6763;48.524;9.044;2023-04-28T00:22:39;97590.47;;;16.37;46.55
13387;BME280;6763;48.524;9.044;2023-04-28T00:25:05;97587.00;;;16.37;46.69
13387;BME280;6763;48.524;9.044;2023-04-28T00:27:32;97587.94;;;16.36;47.08
13387;BME280;6763;48.524;9.044;2023-04-28T00:29:57;97590.69;;;16.33;47.21
13387;BME280;6763;48.524;9.044;2023-04-28T00:32:23;97589.19;;;16.27;47.45
13387;BME280;6763;48.524;9.044;2023-04-28T00:34:48;97582.47;;;16.22;47.75
13387;BME280;6763;48.524;9.044;2023-04-28T00:37:13;97582.53;;;16.20;47.47
13387;BME280;6763;48.524;9.044;2023-04-28T00:39:39;97575.56;;;16.21;47.33
13387;BME280;6763;48.524;9.044;2023-04-28T00:42:06;97573.84;;;16.20;47.32
13387;BME280;6763;48.524;9.044;2023-04-28T00:44:31;97575.63;;;16.19;47.58
13387;BME280;6763;48.524;9.044;2023-04-28T00:46:57;97578.44;;;16.14;47.74
13387;BME280;6763;48.524;9.044;2023-04-28T00:49:24;97564.94;;;16.05;47.94
13387;BME280;6763;48.524;9.044;2023-04-28T00:51:49;97571.19;;;16.01;48.00
13387;BME280;6763;48.524;9.044;2023-04-28T00:54:15;97566.19;;;15.96;48.04
13387;BME280;6763;48.524;9.044;2023-04-28T00:56:42;97562.03;;;15.92;48.12
13387;BME280;6763;48.524;9.044;2023-04-28T00:59:07;97572.63;;;15.88;48.27
13387;BME280;6763;48.524;9.044;2023-04-28T01:01:34;97570.22;;;15.83;48.46
13387;BME280;6763;48.524;9.044;2023-04-28T01:03:59;97566.84;;;15.81;48.43
13387;BME280;6763;48.524;9.044;2023-04-28T01:06:26;97569.59;;;15.78;48.62
13387;BME280;6763;48.524;9.044;2023-04-28T01:08:52;97561.84;;;15.77;48.45
13387;BME280;6763;48.524;9.044;2023-04-28T01:11:18;97554.00;;;15.77;48.46
13387;BME280;6763;48.524;9.044;2023-04-28T01:13:43;97557.41;;;15.79;48.47
13387;BME280;6763;48.524;9.044;2023-04-28T01:16:09;97554.69;;;15.80;48.41
13387;BME280;6763;48.524;9.044;2023-04-28T01:18:34;97553.72;;;15.83;48.41
13387;BME280;6763;48.524;9.044;2023-04-28T01:20:59;97547.53;;;15.85;48.38
13387;BME280;6763;48.524;9.044;2023-04-28T01:23:25;97547.41;;;15.88;48.00
13387;BME280;6763;48.524;9.044;2023-04-28T01:25:51;97556.94;;;15.89;47.84
13387;BME280;6763;48.524;9.044;2023-04-28T01:28:16;97545.63;;;15.89;48.13
13387;BME280;6763;48.524;9.044;2023-04-28T01:30:41;97545.56;;;15.90;48.15
13387;BME280;6763;48.524;9.044;2023-04-28T01:33:07;97546.50;;;15.89;48.17
13387;BME280;6763;48.524;9.044;2023-04-28T01:35:32;97546.41;;;15.91;48.28
13387;BME280;6763;48.524;9.044;2023-04-28T01:37:58;97538.59;;;15.91;48.32
13387;BME280;6763;48.524;9.044;2023-04-28T01:40:23;97532.50;;;15.90;47.96
13387;BME280;6763;48.524;9.044;2023-04-28T01:42:48;97539.53;;;15.90;48.29
13387;BME280;6763;48.524;9.044;2023-04-28T01:45:14;97531.81;;;15.87;48.28
13387;BME280;6763;48.524;9.044;2023-04-28T01:47:39;97543.16;;;15.86;48.17
13387;BME280;6763;48.524;9.044;2023-04-28T01:50:05;97532.84;;;15.83;48.11
13387;BME280;6763;48.524;9.044;2023-04-28T01:52:30;97533.78;;;15.82;48.25
13387;BME280;6763;48.524;9.044;2023-04-28T01:57:59;97536.50;;;15.79;48.57
13387;BME280;6763;48.524;9.044;2023-04-28T02:00:24;97533.06;;;15.78;48.44
13387;BME280;6763;48.524;9.044;2023-04-28T02:02:51;97532.94;;;15.81;48.66
13387;BME280;6763;48.524;9.044;2023-04-28T02:05:16;97530.22;;;15.83;48.59
13387;BME280;6763;48.524;9.044;2023-04-28T02:07:42;97535.44;;;15.83;48.76
13387;BME280;6763;48.524;9.044;2023-04-28T02:10:07;97531.16;;;15.82;48.88
13387;BME280;6763;48.524;9.044;2023-04-28T02:12:33;97525.94;;;15.82;48.78
13387;BME280;6763;48.524;9.044;2023-04-28T02:14:58;97519.78;;;15.83;49.10
13387;BME280;6763;48.524;9.044;2023-04-28T02:17:23;97518.13;;;15.82;49.09
13387;BME280;6763;48.524;9.044;2023-04-28T02:19:54;97520.72;;;15.82;48.97
13387;BME280;6763;48.524;9.044;2023-04-28T02:22:20;97519.03;;;15.81;48.94
13387;BME280;6763;48.524;9.044;2023-04-28T02:24:45;97511.19;;;15.81;48.94
13387;BME280;6763;48.524;9.044;2023-04-28T02:27:11;97503.38;;;15.81;49.25
13387;BME280;6763;48.524;9.044;2023-04-28T02:29:37;97503.28;;;15.82;49.05
13387;BME280;6763;48.524;9.044;2023-04-28T02:32:02;97499.91;;;15.80;49.26
13387;BME280;6763;48.524;9.044;2023-04-28T02:34:28;97503.44;;;15.79;49.29
13387;BME280;6763;48.524;9.044;2023-04-28T02:36:54;97510.34;;;15.80;49.52
13387;BME280;6763;48.524;9.044;2023-04-28T02:39:19;97510.22;;;15.83;49.71
13387;BME280;6763;48.524;9.044;2023-04-28T02:41:46;97516.19;;;15.85;49.27
13387;BME280;6763;48.524;9.044;2023-04-28T02:44:11;97520.53;;;15.86;49.71
13387;BME280;6763;48.524;9.044;2023-04-28T02:46:37;97520.53;;;15.86;49.53
13387;BME280;6763;48.524;9.044;2023-04-28T02:49:02;97524.97;;;15.84;49.55
13387;BME280;6763;48.524;9.044;2023-04-28T02:51:27;97525.81;;;15.85;49.97
13387;BME280;6763;48.524;9.044;2023-04-28T02:53:53;97519.78;;;15.83;50.10
13387;BME280;6763;48.524;9.044;2023-04-28T02:56:18;97522.47;;;15.81;50.16
13387;BME280;6763;48.524;9.044;2023-04-28T02:58:43;97520.13;;;15.75;50.12
13387;BME280;6763;48.524;9.044;2023-04-28T03:01:08;97527.09;;;15.75;50.09
13387;BME280;6763;48.524;9.044;2023-04-28T03:03:34;97527.19;;;15.73;50.58
13387;BME280;6763;48.524;9.044;2023-04-28T03:05:59;97529.91;;;15.70;50.40
13387;BME280;6763;48.524;9.044;2023-04-28T03:08:24;97532.63;;;15.69;50.57
13387;BME280;6763;48.524;9.044;2023-04-28T03:10:50;97524.78;;;15.69;50.64
13387;BME280;6763;48.524;9.044;2023-04-28T03:13:16;97526.47;;;15.70;50.65
13387;BME280;6763;48.524;9.044;2023-04-28T03:15:41;97526.41;;;15.71;50.87
13387;BME280;6763;48.524;9.044;2023-04-28T03:18:06;97516.88;;;15.70;50.73
13387;BME280;6763;48.524;9.044;2023-04-28T03:20:31;97515.97;;;15.71;50.62
13387;BME280;6763;48.524;9.044;2023-04-28T03:22:57;97505.53;;;15.71;50.75
13387;BME280;6763;48.524;9.044;2023-04-28T03:25:22;97498.47;;;15.73;50.68
13387;BME280;6763;48.524;9.044;2023-04-28T03:27:48;97507.94;;;15.76;50.92
13387;BME280;6763;48.524;9.044;2023-04-28T03:30:13;97498.41;;;15.75;50.83
13387;BME280;6763;48.524;9.044;2023-04-28T03:32:38;97498.28;;;15.78;50.84
13387;BME280;6763;48.524;9.044;2023-04-28T03:35:04;97501.66;;;15.80;50.83
13387;BME280;6763;48.524;9.044;2023-04-28T03:37:29;97498.06;;;15.82;50.74
13387;BME280;6763;48.524;9.044;2023-04-28T03:39:55;97499.78;;;15.83;50.71
13387;BME280;6763;48.524;9.044;2023-04-28T03:42:20;97497.94;;;15.85;50.79
13387;BME280;6763;48.524;9.044;2023-04-28T03:44:45;97490.91;;;15.87;50.74
13387;BME280;6763;48.524;9.044;2023-04-28T03:47:11;97491.69;;;15.89;50.67
13387;BME280;6763;48.524;9.044;2023-04-28T03:49:36;97489.84;;;15.91;50.78
13387;BME280;6763;48.524;9.044;2023-04-28T03:52:02;97490.69;;;15.92;50.84
13387;BME280;6763;48.524;9.044;2023-04-28T03:54:28;97487.16;;;15.93;50.86
13387;BME280;6763;48.524;9.044;2023-04-28T03:56:53;97479.41;;;15.91;50.77
13387;BME280;6763;48.524;9.044;2023-04-28T03:59:19;97479.28;;;15.94;50.74
13387;BME280;6763;48.524;9.044;2023-04-28T04:01:45;97480.13;;;15.95;50.62
13387;BME280;6763;48.524;9.044;2023-04-28T04:04:10;97482.66;;;15.96;50.88
13387;BME280;6763;48.524;9.044;2023-04-28T04:06:35;97482.66;;;15.96;50.85
13387;BME280;6763;48.524;9.044;2023-04-28T04:09:01;97479.91;;;15.99;50.88
13387;BME280;6763;48.524;9.044;2023-04-28T04:11:26;97485.91;;;16.01;50.80
13387;BME280;6763;48.524;9.044;2023-04-28T04:13:51;97478.03;;;16.03;51.01
13387;BME280;6763;48.524;9.044;2023-04-28T04:16:16;97472.81;;;16.03;50.70
13387;BME280;6763;48.524;9.044;2023-04-28T04:18:42;97471.09;;;16.02;50.86
13387;BME280;6763;48.524;9.044;2023-04-28T04:21:07;97473.63;;;16.03;51.17
13387;BME280;6763;48.524;9.044;2023-04-28T04:23:32;97473.75;;;16.00;51.10
13387;BME280;6763;48.524;9.044;2023-04-28T04:25:58;97471.44;;;15.94;51.65
13387;BME280;6763;48.524;9.044;2023-04-28T04:28:23;97476.94;;;15.88;51.54
13387;BME280;6763;48.524;9.044;2023-04-28T04:30:48;97474.44;;;15.85;51.92
13387;BME280;6763;48.524;9.044;2023-04-28T04:33:14;97480.59;;;15.84;52.12
13387;BME280;6763;48.524;9.044;2023-04-28T04:35:39;97474.56;;;15.82;51.99
13387;BME280;6763;48.524;9.044;2023-04-28T04:38:04;97472.94;;;15.80;52.19
13387;BME280;6763;48.524;9.044;2023-04-28T04:40:31;97464.31;;;15.79;52.06
13387;BME280;6763;48.524;9.044;2023-04-28T04:42:56;97464.31;;;15.79;52.44
13387;BME280;6763;48.524;9.044;2023-04-28T04:45:22;97459.84;;;15.81;51.98
13387;BME280;6763;48.524;9.044;2023-04-28T04:47:47;97461.53;;;15.82;52.47
13387;BME280;6763;48.524;9.044;2023-04-28T04:50:13;97456.38;;;15.81;52.67
13387;BME280;6763;48.524;9.044;2023-04-28T04:52:39;97467.91;;;15.77;52.83
13387;BME280;6763;48.524;9.044;2023-04-28T04:55:04;97464.56;;;15.73;52.88
13387;BME280;6763;48.524;9.044;2023-04-28T04:57:30;97465.28;;;15.77;52.94
13387;BME280;6763;48.524;9.044;2023-04-28T04:59:56;97459.91;;;15.80;52.90
13387;BME280;6763;48.524;9.044;2023-04-28T05:02:21;97462.59;;;15.78;52.93
13387;BME280;6763;48.524;9.044;2023-04-28T05:04:46;97462.50;;;15.80;53.42
13387;BME280;6763;48.524;9.044;2023-04-28T05:07:12;97454.75;;;15.78;53.52
13387;BME280;6763;48.524;9.044;2023-04-28T05:09:38;97453.00;;;15.79;53.60
13387;BME280;6763;48.524;9.044;2023-04-28T05:12:03;97450.44;;;15.77;53.88
13387;BME280;6763;48.524;9.044;2023-04-28T05:14:28;97447.91;;;15.76;54.47
13387;BME280;6763;48.524;9.044;2023-04-28T05:16:54;97444.53;;;15.74;54.42
13387;BME280;6763;48.524;9.044;2023-04-28T05:19:20;97451.31;;;15.78;54.39
13387;BME280;6763;48.524;9.044;2023-04-28T05:21:45;97445.88;;;15.82;54.56
13387;BME280;6763;48.524;9.044;2023-04-28T05:24:13;97442.22;;;15.86;54.51
13387;BME280;6763;48.524;9.044;2023-04-28T05:26:38;97450.69;;;15.91;54.56
13387;BME280;6763;48.524;9.044;2023-04-28T05:29:04;97449.78;;;15.92;54.68
13387;BME280;6763;48.524;9.044;2023-04-28T05:31:29;97458.38;;;15.94;54.96
13387;BME280;6763;48.524;9.044;2023-04-28T05:33:54;97455.91;;;15.91;55.07
13387;BME280;6763;48.524;9.044;2023-04-28T05:36:20;97461.34;;;15.87;55.25
13387;BME280;6763;48.524;9.044;2023-04-28T05:38:45;97449.34;;;15.83;55.53
13387;BME280;6763;48.524;9.044;2023-04-28T05:41:10;97462.47;;;15.81;55.49
13387;BME280;6763;48.524;9.044;2023-04-28T05:43:36;97459.84;;;15.81;55.41
13387;BME280;6763;48.524;9.044;2023-04-28T05:46:01;97464.00;;;15.85;55.31
13387;BME280;6763;48.524;9.044;2023-04-28T05:48:27;97456.75;;;15.92;55.48
13387;BME280;6763;48.524;9.044;2023-04-28T05:50:52;97460.00;;;15.97;55.48
13387;BME280;6763;48.524;9.044;2023-04-28T05:53:18;97448.44;;;16.02;55.75
13387;BME280;6763;48.524;9.044;2023-04-28T05:55:44;97453.53;;;16.05;55.72
13387;BME280;6763;48.524;9.044;2023-04-28T05:58:09;97449.78;;;16.11;55.52
13387;BME280;6763;48.524;9.044;2023-04-28T06:00:57;97447.88;;;16.14;55.71
13387;BME280;6763;48.524;9.044;2023-04-28T06:03:42;97454.72;;;16.17;55.76
13387;BME280;6763;48.524;9.044;2023-04-28T06:06:32;97457.19;;;16.20;56.45
13387;BME280;6763;48.524;9.044;2023-04-28T06:09:19;97458.59;;;16.27;56.50
13387;BME280;6763;48.524;9.044;2023-04-28T06:12:06;97455.72;;;16.33;56.64
13387;BME280;6763;48.524;9.044;2023-04-28T06:15:04;97452.66;;;16.42;56.45
13387;BME280;6763;48.524;9.044;2023-04-28T06:17:49;97453.59;;;16.41;56.87
13387;BME280;6763;48.524;9.044;2023-04-28T06:34:31;97450.41;;;16.53;57.00
13387;BME280;6763;48.524;9.044;2023-04-28T06:37:00;97449.91;;;16.64;56.72
13387;BME280;6763;48.524;9.044;2023-04-28T06:39:25;97445.06;;;16.73;56.64
13387;BME280;6763;48.524;9.044;2023-04-28T06:41:51;97441.19;;;16.82;56.50
13387;BME280;6763;48.524;9.044;2023-04-28T06:44:17;97441.66;;;16.90;56.46
13387;BME280;6763;48.524;9.044;2023-04-28T06:46:42;97424.72;;;16.97;56.29
13387;BME280;6763;48.524;9.044;2023-04-28T06:49:07;97433.91;;;17.06;55.97
13387;BME280;6763;48.524;9.044;2023-04-28T06:51:33;97425.75;;;17.12;56.01
13387;BME280;6763;48.524;9.044;2023-04-28T06:53:58;97433.28;;;17.18;56.03
13387;BME280;6763;48.524;9.044;2023-04-28T06:56:24;97438.19;;;17.24;55.90
13387;BME280;6763;48.524;9.044;2023-04-28T06:58:49;97438.13;;;17.25;55.79
13387;BME280;6763;48.524;9.044;2023-04-28T07:01:15;97436.19;;;17.29;55.90
13387;BME280;6763;48.524;9.044;2023-04-28T07:03:41;97427.34;;;17.31;55.86
13387;BME280;6763;48.524;9.044;2023-04-28T07:06:07;97428.66;;;17.40;55.43
13387;BME280;6763;48.524;9.044;2023-04-28T07:08:33;97422.25;;;17.46;55.41
13387;BME280;6763;48.524;9.044;2023-04-28T07:10:58;97423.69;;;17.51;55.61
13387;BME280;6763;48.524;9.044;2023-04-28T07:13:24;97423.41;;;17.57;55.60
13387;BME280;6763;48.524;9.044;2023-04-28T07:15:49;97420.56;;;17.62;55.07
13387;BME280;6763;48.524;9.044;2023-04-28T07:18:14;97413.50;;;17.64;55.56
13387;BME280;6763;48.524;9.044;2023-04-28T07:20:40;97410.94;;;17.62;55.44
13387;BME280;6763;48.524;9.044;2023-04-28T07:23:05;97417.28;;;17.58;55.52
13387;BME280;6763;48.524;9.044;2023-04-28T07:25:30;97413.97;;;17.55;55.54
13387;BME280;6763;48.524;9.044;2023-04-28T07:27:56;97420.09;;;17.54;55.88
13387;BME280;6763;48.524;9.044;2023-04-28T07:30:21;97411.34;;;17.55;56.35
13387;BME280;6763;48.524;9.044;2023-04-28T07:32:47;97418.19;;;17.57;56.48
13387;BME280;6763;48.524;9.044;2023-04-28T07:35:12;97412.78;;;17.60;56.53
13387;BME280;6763;48.524;9.044;2023-04-28T07:37:37;97412.47;;;17.66;56.38
13387;BME280;6763;48.524;9.044;2023-04-28T07:40:04;97415.69;;;17.71;56.39
13387;BME280;6763;48.524;9.044;2023-04-28T07:42:30;97417.38;;;17.72;56.16
13387;BME280;6763;48.524;9.044;2023-04-28T07:44:56;97415.50;;;17.74;56.44
13387;BME280;6763;48.524;9.044;2023-04-28T07:47:23;97408.59;;;17.73;56.58
13387;BME280;6763;48.524;9.044;2023-04-28T07:49:48;97413.75;;;17.75;56.35
13387;BME280;6763;48.524;9.044;2023-04-28T07:52:14;97409.19;;;17.78;56.44
13387;BME280;6763;48.524;9.044;2023-04-28T07:54:39;97411.50;;;17.84;56.37
13387;BME280;6763;48.524;9.044;2023-04-28T07:57:04;97410.25;;;17.91;56.21
13387;BME280;6763;48.524;9.044;2023-04-28T07:59:32;97412.50;;;17.97;56.00
13387;BME280;6763;48.524;9.044;2023-04-28T08:01:57;97412.44;;;17.99;56.52
13387;BME280;6763;48.524;9.044;2023-04-28T08:04:23;97421.16;;;18.00;56.44
13387;BME280;6763;48.524;9.044;2023-04-28T08:06:48;97427.31;;;17.98;56.49
13387;BME280;6763;48.524;9.044;2023-04-28T08:09:14;97431.69;;;17.98;56.74
13387;BME280;6763;48.524;9.044;2023-04-28T08:11:39;97427.41;;;17.97;57.30
13387;BME280;6763;48.524;9.044;2023-04-28T08:14:05;97423.94;;;17.96;57.19
13387;BME280;6763;48.524;9.044;2023-04-28T08:16:30;97428.22;;;17.97;57.26
13387;BME280;6763;48.524;9.044;2023-04-28T08:18:56;97429.91;;;17.98;57.26
13387;BME280;6763;48.524;9.044;2023-04-28T08:21:22;97439.38;;;18.01;57.37
13387;BME280;6763;48.524;9.044;2023-04-28T08:23:47;97443.63;;;18.04;57.71
13387;BME280;6763;48.524;9.044;2023-04-28T08:26:12;97439.06;;;18.07;57.61
13387;BME280;6763;48.524;9.044;2023-04-28T08:28:38;97450.31;;;18.09;57.63
13387;BME280;6763;48.524;9.044;2023-04-28T08:31:04;97442.34;;;18.11;57.74
13387;BME280;6763;48.524;9.044;2023-04-28T08:33:30;97452.81;;;18.11;57.95
13387;BME280;6763;48.524;9.044;2023-04-28T08:35:55;97446.75;;;18.10;58.04
13387;BME280;6763;48.524;9.044;2023-04-28T08:38:21;97450.03;;;18.14;58.26
13387;BME280;6763;48.524;9.044;2023-04-28T08:40:48;97456.47;;;18.24;58.04
13387;BME280;6763;48.524;9.044;2023-04-28T08:43:13;97452.34;;;18.35;57.95
13387;BME280;6763;48.524;9.044;2023-04-28T08:45:43;97453.53;;;18.45;57.89
13387;BME280;6763;48.524;9.044;2023-04-28T08:48:20;97453.25;;;18.51;58.09
13387;BME280;6763;48.524;9.044;2023-04-28T08:50:51;97460.66;;;18.59;58.20
13387;BME280;6763;48.524;9.044;2023-04-28T08:53:26;97457.63;;;18.67;58.37
13387;BME280;6763;48.524;9.044;2023-04-28T08:55:54;97464.94;;;18.76;58.52
13387;BME280;6763;48.524;9.044;2023-04-28T08:58:24;97463.59;;;18.84;58.56
13387;BME280;6763;48.524;9.044;2023-04-28T09:00:50;97474.34;;;18.95;58.74
13387;BME280;6763;48.524;9.044;2023-04-28T09:03:16;97471.34;;;19.01;58.65
13387;BME280;6763;48.524;9.044;2023-04-28T09:05:42;97475.41;;;19.07;58.76
13387;BME280;6763;48.524;9.044;2023-04-28T09:08:08;97471.56;;;19.12;58.86
13387;BME280;6763;48.524;9.044;2023-04-28T09:10:33;97474.03;;;19.15;58.99
13387;BME280;6763;48.524;9.044;2023-04-28T09:12:58;97482.75;;;19.16;58.88
13387;BME280;6763;48.524;9.044;2023-04-28T09:15:31;97482.00;;;19.14;58.94
13387;BME280;6763;48.524;9.044;2023-04-28T09:17:57;97489.88;;;19.14;59.06
13387;BME280;6763;48.524;9.044;2023-04-28T09:20:27;97477.41;;;19.17;59.14
13387;BME280;6763;48.524;9.044;2023-04-28T09:22:55;97489.44;;;19.22;59.14
13387;BME280;6763;48.524;9.044;2023-04-28T09:25:21;97486.53;;;19.26;59.14
13387;BME280;6763;48.524;9.044;2023-04-28T09:27:48;97481.75;;;19.33;59.16
13387;BME280;6763;48.524;9.044;2023-04-28T09:30:14;97489.03;;;19.43;59.15
13387;BME280;6763;48.524;9.044;2023-04-28T09:32:40;97483.84;;;19.57;58.89
13387;BME280;6763;48.524;9.044;2023-04-28T09:35:05;97481.13;;;19.73;58.60
13387;BME280;6763;48.524;9.044;2023-04-28T09:37:32;97488.84;;;19.90;58.46
13387;BME280;6763;48.524;9.044;2023-04-28T09:40:05;97489.72;;;20.05;58.19
13387;BME280;6763;48.524;9.044;2023-04-28T09:45:06;97494.44;;;20.28;57.69
13387;BME280;6763;48.524;9.044;2023-04-28T09:47:33;97491.88;;;20.40;58.00
13387;BME280;6763;48.524;9.044;2023-04-28T09:50:10;97488.47;;;20.53;57.20
13387;BME280;6763;48.524;9.044;2023-04-28T09:52:36;97488.81;;;20.61;56.95
13387;BME280;6763;48.524;9.044;2023-04-28T09:55:03;97486.44;;;20.70;56.89
13387;BME280;6763;48.524;9.044;2023-04-28T09:57:31;97485.50;;;20.85;56.35
13387;BME280;6763;48.524;9.044;2023-04-28T09:59:57;97486.34;;;20.98;55.43
13387;BME280;6763;48.524;9.044;2023-04-28T10:02:23;97488.31;;;21.09;54.70
13387;BME280;6763;48.524;9.044;2023-04-28T10:04:50;97483.13;;;21.22;54.14
13387;BME280;6763;48.524;9.044;2023-04-28T10:07:17;97480.94;;;21.41;53.53
13387;BME280;6763;48.524;9.044;2023-04-28T10:09:48;97487.41;;;21.62;53.27
13387;BME280;6763;48.524;9.044;2023-04-28T10:12:18;97485.25;;;21.94;52.67
13387;BME280;6763;48.524;9.044;2023-04-28T10:14:45;97484.81;;;22.12;52.17
13387;BME280;6763;48.524;9.044;2023-04-28T10:17:12;97474.13;;;22.27;51.62
13387;BME280;6763;48.524;9.044;2023-04-28T10:19:40;97480.56;;;22.35;51.28
13387;BME280;6763;48.524;9.044;2023-04-28T10:27:41;97473.66;;;23.41;49.02
13387;BME280;6763;48.524;9.044;2023-04-28T10:30:17;97470.38;;;23.84;48.55
13387;BME280;6763;48.524;9.044;2023-04-28T10:32:43;97465.53;;;24.13;47.52
13387;BME280;6763;48.524;9.044;2023-04-28T10:40:39;97471.25;;;23.73;46.95
13387;BME280;6763;48.524;9.044;2023-04-28T10:43:07;97469.50;;;23.61;46.96
13387;BME280;6763;48.524;9.044;2023-04-28T10:56:19;97459.63;;;25.18;43.66
13387;BME280;6763;48.524;9.044;2023-04-28T10:58:52;97454.41;;;25.90;42.34
13387;BME280;6763;48.524;9.044;2023-04-28T11:11:29;97459.75;;;25.69;39.52
13387;BME280;6763;48.524;9.044;2023-04-28T11:19:17;97452.88;;;25.67;40.24
13387;BME280;6763;48.524;9.044;2023-04-28T11:21:43;97453.47;;;25.70;39.98
13387;BME280;6763;48.524;9.044;2023-04-28T11:24:09;97454.69;;;25.66;40.20
13387;BME280;6763;48.524;9.044;2023-04-28T11:26:36;97454.75;;;25.55;39.87
13387;BME280;6763;48.524;9.044;2023-04-28T11:29:01;97457.09;;;25.49;39.87
13387;BME280;6763;48.524;9.044;2023-04-28T11:31:27;97462.53;;;25.47;39.65
13387;BME280;6763;48.524;9.044;2023-04-28T11:33:58;97453.78;;;25.56;39.24
13387;BME280;6763;48.524;9.044;2023-04-28T11:36:26;97453.97;;;25.85;38.95
13387;BME280;6763;48.524;9.044;2023-04-28T11:38:52;97440.69;;;26.06;38.29
13387;BME280;6763;48.524;9.044;2023-04-28T11:41:18;97457.88;;;26.11;38.57
13387;BME280;6763;48.524;9.044;2023-04-28T11:43:44;97452.38;;;26.24;37.97
13387;BME280;6763;48.524;9.044;2023-04-28T11:46:09;97458.84;;;26.10;37.97
13387;BME280;6763;48.524;9.044;2023-04-28T11:48:40;97441.44;;;25.97;37.86
13387;BME280;6763;48.524;9.044;2023-04-28T11:51:05;97438.00;;;25.96;38.27
13387;BME280;6763;48.524;9.044;2023-04-28T11:53:42;97460.78;;;25.78;38.07
13387;BME280;6763;48.524;9.044;2023-04-28T11:56:08;97448.78;;;25.63;38.17
13387;BME280;6763;48.524;9.044;2023-04-28T11:58:33;97442.09;;;25.59;38.29
13387;BME280;6763;48.524;9.044;2023-04-28T12:01:09;97440.59;;;25.66;38.25
13387;BME280;6763;48.524;9.044;2023-04-28T12:03:45;97439.81;;;25.75;38.19
13387;BME280;6763;48.524;9.044;2023-04-28T12:06:10;97439.31;;;25.81;38.23
13387;BME280;6763;48.524;9.044;2023-04-28T12:08:36;97451.47;;;25.83;38.05
13387;BME280;6763;48.524;9.044;2023-04-28T12:11:08;97441.38;;;25.77;37.75
13387;BME280;6763;48.524;9.044;2023-04-28T12:13:42;97449.06;;;25.60;38.04
13387;BME280;6763;48.524;9.044;2023-04-28T12:18:58;97446.72;;;25.46;38.08
13387;BME280;6763;48.524;9.044;2023-04-28T12:21:24;97443.34;;;25.44;38.12
13387;BME280;6763;48.524;9.044;2023-04-28T12:23:49;97443.59;;;25.41;38.19
13387;BME280;6763;48.524;9.044;2023-04-28T12:26:23;97443.06;;;25.26;38.74
13387;BME280;6763;48.524;9.044;2023-04-28T12:28:49;97448.41;;;25.15;39.17
13387;BME280;6763;48.524;9.044;2023-04-28T12:31:14;97447.31;;;25.17;39.17
13387;BME280;6763;48.524;9.044;2023-04-28T12:33:40;97455.97;;;25.19;38.92
13387;BME280;6763;48.524;9.044;2023-04-28T12:36:05;97449.59;;;25.22;38.51
13387;BME280;6763;48.524;9.044;2023-04-28T12:38:31;97442.47;;;25.22;38.45
13387;BME280;6763;48.524;9.044;2023-04-28T12:40:57;97444.50;;;25.30;38.51
13387;BME280;6763;48.524;9.044;2023-04-28T12:43:23;97446.25;;;25.41;37.75
13387;BME280;6763;48.524;9.044;2023-04-28T12:45:49;97440.00;;;25.42;38.17
13387;BME280;6763;48.524;9.044;2023-04-28T12:48:14;97449.00;;;25.50;38.08
13387;BME280;6763;48.524;9.044;2023-04-28T12:50:40;97432.84;;;25.53;38.11
13387;BME280;6763;48.524;9.044;2023-04-28T12:53:05;97451.63;;;25.50;37.66
13387;BME280;6763;48.524;9.044;2023-04-28T12:55:31;97444.09;;;25.46;37.92
13387;BME280;6763;48.524;9.044;2023-04-28T12:57:56;97446.94;;;25.43;38.05
13387;BME280;6763;48.524;9.044;2023-04-28T13:00:21;97438.66;;;25.47;38.29
13387;BME280;6763;48.524;9.044;2023-04-28T13:02:49;97439.41;;;25.38;38.42
13387;BME280;6763;48.524;9.044;2023-04-28T13:05:15;97444.00;;;25.36;38.65
13387;BME280;6763;48.524;9.044;2023-04-28T13:07:41;97435.25;;;25.45;38.53
13387;BME280;6763;48.524;9.044;2023-04-28T13:10:07;97435.81;;;25.60;38.70
13387;BME280;6763;48.524;9.044;2023-04-28T13:12:33;97429.88;;;25.67;38.55
13387;BME280;6763;48.524;9.044;2023-04-28T13:15:00;97440.03;;;25.62;38.79
13387;BME280;6763;48.524;9.044;2023-04-28T13:17:26;97439.72;;;25.45;38.73
13387;BME280;6763;48.524;9.044;2023-04-28T13:19:52;97428.94;;;25.37;38.38
13387;BME280;6763;48.524;9.044;2023-04-28T13:22:17;97428.34;;;25.33;38.56
13387;BME280;6763;48.524;9.044;2023-04-28T13:24:43;97437.78;;;25.26;38.66
13387;BME280;6763;48.524;9.044;2023-04-28T13:27:08;97423.53;;;25.06;38.64
13387;BME280;6763;48.524;9.044;2023-04-28T13:29:34;97423.75;;;24.72;39.71
13387;BME280;6763;48.524;9.044;2023-04-28T13:32:02;97437.00;;;24.49;40.72
13387;BME280;6763;48.524;9.044;2023-04-28T13:34:29;97432.69;;;24.37;40.84
13387;BME280;6763;48.524;9.044;2023-04-28T13:36:55;97427.88;;;24.20;41.19
13387;BME280;6763;48.524;9.044;2023-04-28T13:39:21;97422.59;;;23.98;41.79
13387;BME280;6763;48.524;9.044;2023-04-28T13:41:47;97422.09;;;23.71;42.58
13387;BME280;6763;48.524;9.044;2023-04-28T13:44:16;97421.72;;;23.64;43.18
13387;BME280;6763;48.524;9.044;2023-04-28T13:46:42;97415.13;;;23.70;43.85
13387;BME280;6763;48.524;9.044;2023-04-28T13:49:10;97416.44;;;23.75;43.71
13387;BME280;6763;48.524;9.044;2023-04-28T13:51:36;97413.69;;;23.77;43.60
13387;BME280;6763;48.524;9.044;2023-04-28T13:54:02;97413.16;;;23.61;44.20
13387;BME280;6763;48.524;9.044;2023-04-28T13:56:33;97419.13;;;23.40;44.89
13387;BME280;6763;48.524;9.044;2023-04-28T13:58:59;97424.09;;;23.21;45.88
13387;BME280;6763;48.524;9.044;2023-04-28T14:01:25;97420.50;;;22.88;47.02
13387;BME280;6763;48.524;9.044;2023-04-28T14:03:50;97426.38;;;22.55;48.42
13387;BME280;6763;48.524;9.044;2023-04-28T14:06:15;97425.00;;;22.26;49.56